Time;durP1;ratioP1;P1;durP2;ratioP2;P2;SDS_P1;SDS_P2;PMS_P1;PMS_P2;Temp;Humidity;BMP_temperature;BMP_pressure;BME280_temperature;BME280_humidity;BME280_pressure;Samples;Min_cycle;Max_cycle;Signal;HPM_P1;HPM_P2
2023/10/03 00:00:24;;;;;;;15.33;12.67;;;;;;;10.94;100.00;97262.31;5072709;28;20190;-59
2023/10/03 00:02:55;;;;;;;17.33;12.20;;;;;;;10.94;100.00;97264.13;5073093;28;20784;-61
2023/10/03 00:05:28;;;;;;;16.23;11.60;;;;;;;10.96;100.00;97259.47;5005645;28;21019;-61
2023/10/03 00:07:56;;;;;;;14.43;12.37;;;;;;;11.03;100.00;97259.56;5072080;28;20198;-61
2023/10/03 00:10:26;;;;;;;15.83;11.83;;;;;;;10.98;100.00;97255.63;5077095;28;20890;-61
2023/10/03 00:12:54;;;;;;;14.63;11.17;;;;;;;10.95;100.00;97247.22;5076004;28;20293;-57
2023/10/03 00:15:24;;;;;;;12.20;10.23;;;;;;;10.89;100.00;97242.66;5072977;28;20426;-62
2023/10/03 00:17:53;;;;;;;13.33;11.93;;;;;;;10.84;100.00;97235.28;5078576;28;20661;-61
2023/10/03 00:20:22;;;;;;;13.13;10.67;;;;;;;10.78;100.00;97228.03;5071650;28;20778;-63
2023/10/03 00:22:51;;;;;;;14.67;11.60;;;;;;;10.80;100.00;97232.16;5078026;28;20309;-58
2023/10/03 00:25:25;;;;;;;17.03;11.73;;;;;;;10.79;100.00;97229.69;4988413;28;21309;-62
2023/10/03 00:27:59;;;;;;;13.30;11.23;;;;;;;10.71;100.00;97226.13;5076359;28;20196;-61
2023/10/03 00:30:29;;;;;;;12.60;10.87;;;;;;;10.61;100.00;97211.53;5073660;28;20202;-61
2023/10/03 00:32:57;;;;;;;12.70;11.40;;;;;;;10.60;100.00;97221.31;5070210;28;20220;-62
2023/10/03 00:35:26;;;;;;;15.03;11.33;;;;;;;10.57;100.00;97221.66;5071544;28;20694;-61
2023/10/03 00:37:54;;;;;;;14.33;11.90;;;;;;;10.52;100.00;97214.25;5072634;28;20203;-62
2023/10/03 00:40:28;;;;;;;14.20;10.67;;;;;;;10.52;100.00;97221.41;5018380;28;20283;-61
2023/10/03 00:42:59;;;;;;;12.50;11.03;;;;;;;10.55;100.00;97227.13;5073767;28;20732;-61
2023/10/03 00:45:29;;;;;;;15.97;11.67;;;;;;;10.52;100.00;97224.84;5070090;28;20294;-60
2023/10/03 00:47:58;;;;;;;12.40;10.90;;;;;;;10.52;100.00;97216.91;5067403;28;20222;-60
2023/10/03 00:50:27;;;;;;;14.83;11.63;;;;;;;10.51;100.00;97214.47;5069457;28;20221;-61
2023/10/03 00:52:58;;;;;;;16.37;11.50;;;;;;;10.52;100.00;97219.56;5068550;28;20678;-57
2023/10/03 00:55:27;;;;;;;16.40;11.53;;;;;;;10.50;100.00;97215.47;5065022;28;20197;-60
2023/10/03 00:58:06;;;;;;;14.40;11.90;;;;;;;10.49;100.00;97208.53;5073339;28;20225;-62
2023/10/03 01:00:38;;;;;;;15.03;11.47;;;;;;;10.45;100.00;97205.41;4965122;28;20485;-61
2023/10/03 01:03:09;;;;;;;14.93;11.93;;;;;;;10.46;100.00;97203.59;5065410;28;20882;-59
2023/10/03 01:05:38;;;;;;;14.23;12.23;;;;;;;10.51;100.00;97201.22;5069055;28;20653;-62
2023/10/03 01:08:07;;;;;;;15.03;11.10;;;;;;;10.51;100.00;97204.66;5071367;28;20202;-58
2023/10/03 01:10:34;;;;;;;13.07;11.00;;;;;;;10.47;100.00;97202.59;5015091;28;20679;-61
2023/10/03 01:13:09;;;;;;;15.50;12.10;;;;;;;10.46;100.00;97198.28;5002269;28;20230;-57
2023/10/03 01:15:39;;;;;;;12.87;11.10;;;;;;;10.44;100.00;97193.16;5075530;28;20198;-62
2023/10/03 01:18:11;;;;;;;14.40;10.90;;;;;;;10.42;100.00;97196.00;5067944;28;20640;-60
2023/10/03 01:20:41;;;;;;;14.60;10.93;;;;;;;10.41;100.00;97188.22;5073999;28;20199;-62
2023/10/03 01:23:12;;;;;;;12.97;10.73;;;;;;;10.37;100.00;97189.56;5070320;28;20228;-60
2023/10/03 01:25:42;;;;;;;13.70;10.43;;;;;;;10.34;100.00;97182.81;5077417;28;20203;-62
2023/10/03 01:28:10;;;;;;;14.60;11.27;;;;;;;10.30;100.00;97192.13;5079893;28;20202;-61
2023/10/03 01:30:40;;;;;;;16.70;12.93;;;;;;;10.26;100.00;97177.59;5078845;28;20225;-62
2023/10/03 01:33:09;;;;;;;12.90;11.37;;;;;;;10.33;100.00;97181.16;4966333;28;20194;-62
2023/10/03 01:35:37;;;;;;;15.33;11.33;;;;;;;10.32;100.00;97181.34;5079893;28;20193;-62
2023/10/03 01:38:05;;;;;;;12.33;10.50;;;;;;;10.26;100.00;97161.72;5073354;28;20213;-61
2023/10/03 01:40:34;;;;;;;14.73;11.07;;;;;;;10.35;100.00;97171.19;5072374;28;20708;-59
2023/10/03 01:43:02;;;;;;;11.60;10.40;;;;;;;10.35;100.00;97167.75;5021116;28;20623;-60
2023/10/03 01:45:32;;;;;;;11.60;9.20;;;;;;;10.35;100.00;97163.25;5078323;28;20229;-59
2023/10/03 01:48:00;;;;;;;16.00;11.07;;;;;;;10.33;100.00;97159.97;5069158;28;20298;-62
2023/10/03 01:50:29;;;;;;;13.47;10.67;;;;;;;10.32;100.00;97162.81;5072923;28;20237;-60
2023/10/03 01:52:57;;;;;;;12.37;10.87;;;;;;;10.30;100.00;97155.03;5075700;28;20317;-60
2023/10/03 01:55:25;;;;;;;14.00;10.30;;;;;;;10.31;100.00;97151.41;5077053;28;20210;-62
2023/10/03 01:57:54;;;;;;;15.97;11.20;;;;;;;10.32;100.00;97149.59;5071988;28;20226;-62
2023/10/03 02:00:25;;;;;;;12.80;10.93;;;;;;;10.32;100.00;97152.22;5074936;28;20518;-62
2023/10/03 02:02:56;;;;;;;15.43;11.70;;;;;;;10.35;100.00;97157.97;4976258;28;20226;-60
2023/10/03 02:05:26;;;;;;;14.63;12.23;;;;;;;10.39;100.00;97155.78;5079595;28;20210;-62
2023/10/03 02:07:55;;;;;;;14.53;12.03;;;;;;;10.40;100.00;97152.97;5067491;28;20194;-62
2023/10/03 02:10:23;;;;;;;12.80;10.30;;;;;;;10.36;100.00;97151.66;5078830;28;20214;-62
2023/10/03 02:12:53;;;;;;;21.90;11.83;;;;;;;10.34;100.00;97148.38;5073548;28;20249;-62
2023/10/03 02:15:23;;;;;;;13.90;11.33;;;;;;;10.35;100.00;97151.84;5075899;28;20202;-61
2023/10/03 02:17:52;;;;;;;14.17;11.70;;;;;;;10.35;100.00;97157.97;5015573;28;20198;-59
2023/10/03 02:20:21;;;;;;;14.90;12.07;;;;;;;10.38;100.00;97151.50;5073195;28;20775;-59
2023/10/03 02:22:55;;;;;;;13.07;10.27;;;;;;;10.41;100.00;97145.84;5059118;28;20630;-62
2023/10/03 02:25:23;;;;;;;13.63;11.53;;;;;;;10.32;100.00;97136.34;5062336;28;20214;-60
2023/10/03 02:27:53;;;;;;;15.00;11.30;;;;;;;10.27;100.00;97140.38;5076099;28;20293;-61
2023/10/03 02:30:25;;;;;;;13.83;10.43;;;;;;;10.21;100.00;97135.78;5074988;28;20202;-59
2023/10/03 02:32:54;;;;;;;12.07;10.13;;;;;;;10.15;100.00;97139.16;4964865;28;20289;-60
2023/10/03 02:35:23;;;;;;;13.33;10.17;;;;;;;10.09;100.00;97132.78;5069664;28;20823;-61
2023/10/03 02:37:54;;;;;;;16.33;10.30;;;;;;;10.03;100.00;97128.19;5070746;28;20756;-59
2023/10/03 02:40:23;;;;;;;13.23;10.70;;;;;;;9.97;100.00;97124.47;5071995;28;20243;-56
2023/10/03 02:42:51;;;;;;;13.80;10.43;;;;;;;9.96;100.00;97121.97;5076161;28;20226;-61
2023/10/03 02:45:22;;;;;;;11.90;9.13;;;;;;;9.92;100.00;97110.97;5072930;28;20202;-61
2023/10/03 02:47:55;;;;;;;12.87;9.97;;;;;;;9.87;100.00;97113.34;5067818;28;20214;-60
2023/10/03 02:50:24;;;;;;;11.80;9.00;;;;;;;9.83;100.00;97112.84;5071600;28;21007;-61
2023/10/03 02:52:52;;;;;;;12.87;9.80;;;;;;;9.82;100.00;97103.28;5014023;28;20207;-60
2023/10/03 02:55:20;;;;;;;13.37;10.33;;;;;;;9.81;100.00;97098.16;5065166;28;20307;-58
2023/10/03 02:57:48;;;;;;;15.00;11.33;;;;;;;9.92;100.00;97100.38;5073746;28;20234;-61
2023/10/03 03:00:16;;;;;;;12.83;11.47;;;;;;;9.94;100.00;97089.59;5070698;28;20337;-61
2023/10/03 03:02:47;;;;;;;13.53;10.27;;;;;;;9.92;100.00;97097.72;5072817;28;20289;-58
2023/10/03 03:05:18;;;;;;;11.93;10.60;;;;;;;9.90;100.00;97090.94;5073610;28;20222;-62
2023/10/03 03:07:46;;;;;;;12.87;11.27;;;;;;;9.92;100.00;97092.44;4969371;28;20206;-59
2023/10/03 03:10:16;;;;;;;14.47;11.77;;;;;;;9.99;100.00;97089.84;5071544;28;20233;-61
2023/10/03 03:12:44;;;;;;;12.47;10.37;;;;;;;10.06;100.00;97090.78;5069078;28;20357;-60
2023/10/03 03:15:14;;;;;;;16.57;12.50;;;;;;;10.10;100.00;97086.78;5065218;28;20234;-59
2023/10/03 03:17:43;;;;;;;12.73;11.40;;;;;;;10.12;100.00;97089.22;5072418;28;20227;-60
2023/10/03 03:20:17;;;;;;;15.03;11.33;;;;;;;10.08;100.00;97085.28;5065343;28;20237;-60
2023/10/03 03:22:48;;;;;;;16.27;11.80;;;;;;;10.12;100.00;97086.56;5063658;28;20197;-60
2023/10/03 03:25:24;;;;;;;14.70;12.20;;;;;;;10.18;100.00;97085.03;5075271;28;20714;-61
2023/10/03 03:27:55;;;;;;;17.07;12.80;;;;;;;10.20;100.00;97093.59;5007905;28;20291;-59
2023/10/03 03:30:35;;;;;;;17.97;12.40;;;;;;;10.32;100.00;97088.66;5068898;28;20298;-61
2023/10/03 03:33:07;;;;;;;16.87;11.73;;;;;;;10.30;100.00;97078.25;5070755;28;20329;-60
2023/10/03 03:35:39;;;;;;;13.37;11.30;;;;;;;10.24;100.00;97082.47;5066367;28;20199;-59
2023/10/03 03:38:15;;;;;;;15.50;11.33;;;;;;;10.19;100.00;97084.03;4959041;28;20214;-61
2023/10/03 03:40:46;;;;;;;14.63;11.97;;;;;;;10.20;100.00;97078.53;5077490;28;20202;-61
2023/10/03 03:43:16;;;;;;;14.97;11.70;;;;;;;10.30;100.00;97072.94;5069947;28;20190;-60
2023/10/03 03:45:44;;;;;;;16.80;12.67;;;;;;;10.45;100.00;97080.09;5076261;28;20206;-60
2023/10/03 03:48:13;;;;;;;17.43;12.93;;;;;;;10.54;100.00;97071.03;5067917;28;20241;-60
2023/10/03 03:50:41;;;;;;;16.77;12.67;;;;;;;10.50;100.00;97064.47;5075438;28;20705;-63
2023/10/03 03:53:12;;;;;;;16.40;12.67;;;;;;;10.61;100.00;97065.81;5075399;28;20194;-61
2023/10/03 03:55:40;;;;;;;15.47;12.10;;;;;;;10.62;100.00;97070.09;5085363;28;20197;-59
2023/10/03 03:58:14;;;;;;;16.27;12.67;;;;;;;10.60;100.00;97077.41;5016895;28;20300;-64
2023/10/03 04:00:47;;;;;;;15.53;12.83;;;;;;;10.60;100.00;97072.94;5074215;28;20212;-59
2023/10/03 04:03:17;;;;;;;16.57;12.97;;;;;;;10.56;100.00;97075.13;5073910;28;20324;-57
2023/10/03 04:05:46;;;;;;;14.90;11.73;;;;;;;10.57;100.00;97076.75;5072054;28;20317;-62
2023/10/03 04:08:16;;;;;;;18.30;12.00;;;;;;;10.52;100.00;97073.06;4968590;28;20202;-60
2023/10/03 04:10:43;;;;;;;15.87;11.50;;;;;;;10.56;100.00;97074.31;5076531;28;20252;-59
2023/10/03 04:13:11;;;;;;;15.30;11.43;;;;;;;10.53;100.00;97077.34;5072752;28;21142;-63
2023/10/03 04:15:40;;;;;;;16.00;12.57;;;;;;;10.36;100.00;97077.50;5072193;28;20302;-61
2023/10/03 04:18:09;;;;;;;13.93;12.53;;;;;;;10.26;100.00;97079.63;5071667;28;20221;-61
2023/10/03 04:20:40;;;;;;;14.97;11.60;;;;;;;10.30;100.00;97083.53;5064736;28;20207;-61
2023/10/03 04:23:11;;;;;;;12.90;11.03;;;;;;;10.28;100.00;97075.81;5050984;28;20210;-62
2023/10/03 04:25:40;;;;;;;15.80;11.77;;;;;;;10.21;100.00;97077.53;5026186;28;20222;-60
2023/10/03 04:28:09;;;;;;;12.63;11.20;;;;;;;10.21;100.00;97072.22;4989594;28;20224;-60
2023/10/03 04:30:37;;;;;;;13.07;10.93;;;;;;;10.19;100.00;97087.47;5065753;28;20329;-60
2023/10/03 04:33:05;;;;;;;15.03;11.10;;;;;;;10.12;100.00;97084.75;5060152;28;20214;-58
2023/10/03 04:35:34;;;;;;;14.37;11.47;;;;;;;10.08;100.00;97083.50;5060595;28;20206;-61
2023/10/03 04:38:04;;;;;;;16.03;12.13;;;;;;;9.95;100.00;97078.84;4955568;28;20256;-57
2023/10/03 04:40:34;;;;;;;13.97;11.13;;;;;;;9.85;100.00;97084.38;5059967;28;20202;-60
2023/10/03 04:43:11;;;;;;;13.23;11.10;;;;;;;9.90;100.00;97077.72;5004448;28;20227;-63
2023/10/03 04:45:39;;;;;;;13.60;10.40;;;;;;;9.81;100.00;97071.69;5069555;28;20249;-60
2023/10/03 04:48:07;;;;;;;14.13;11.23;;;;;;;9.85;100.00;97073.00;5071584;28;20213;-58
2023/10/03 04:50:36;;;;;;;13.30;10.77;;;;;;;9.88;100.00;97069.97;5072905;28;20230;-60
2023/10/03 04:53:06;;;;;;;15.27;11.47;;;;;;;9.88;100.00;97064.69;5074547;28;20295;-59
2023/10/03 04:55:34;;;;;;;14.47;11.67;;;;;;;9.88;100.00;97069.16;5066254;28;20972;-62
2023/10/03 04:58:03;;;;;;;16.07;12.23;;;;;;;9.90;100.00;97062.69;5070384;28;20808;-60
2023/10/03 05:00:31;;;;;;;16.90;12.00;;;;;;;9.94;100.00;97071.91;5069917;28;20194;-59
2023/10/03 05:02:59;;;;;;;14.97;11.60;;;;;;;10.02;100.00;97065.66;5061297;28;20610;-61
2023/10/03 05:05:27;;;;;;;15.23;11.97;;;;;;;10.00;100.00;97070.31;5036366;28;20528;-63
2023/10/03 05:07:58;;;;;;;16.30;12.63;;;;;;;9.94;100.00;97071.06;5048342;28;20596;-60
2023/10/03 05:10:30;;;;;;;16.70;12.77;;;;;;;9.97;100.00;97073.34;5004019;28;20301;-60
2023/10/03 05:12:58;;;;;;;16.03;12.87;;;;;;;9.98;100.00;97072.34;5067800;28;20205;-60
2023/10/03 05:15:28;;;;;;;17.07;12.73;;;;;;;10.10;100.00;97062.94;5030131;28;20321;-61
2023/10/03 05:17:56;;;;;;;16.37;12.57;;;;;;;10.12;100.00;97055.63;5061891;28;20194;-60
2023/10/03 05:20:34;;;;;;;20.43;14.20;;;;;;;10.20;100.00;97067.94;5030168;28;20214;-59
2023/10/03 05:23:03;;;;;;;16.70;12.50;;;;;;;10.27;100.00;97065.38;5053861;28;20293;-62
2023/10/03 05:25:36;;;;;;;17.77;13.20;;;;;;;10.22;100.00;97062.47;5044322;28;20715;-60
2023/10/03 05:28:05;;;;;;;19.20;13.63;;;;;;;10.27;100.00;97068.03;5070897;28;20228;-62
2023/10/03 05:30:38;;;;;;;15.63;12.23;;;;;;;10.26;100.00;97064.56;5072107;28;20736;-60
2023/10/03 05:33:06;;;;;;;14.70;12.47;;;;;;;10.26;100.00;97069.88;5072595;28;20214;-61
2023/10/03 05:35:35;;;;;;;18.47;12.57;;;;;;;10.30;100.00;97067.66;5071811;28;20277;-60
2023/10/03 05:38:07;;;;;;;14.87;13.27;;;;;;;10.27;100.00;97074.16;5071352;28;20298;-63
2023/10/03 05:40:34;;;;;;;19.70;12.77;;;;;;;10.37;100.00;97083.63;5070488;28;20214;-61
2023/10/03 05:43:05;;;;;;;15.67;12.57;;;;;;;10.34;100.00;97078.72;5034478;28;20198;-61
2023/10/03 05:45:36;;;;;;;18.73;13.83;;;;;;;10.41;100.00;97085.75;5020171;28;20301;-63
2023/10/03 05:48:05;;;;;;;15.87;12.93;;;;;;;10.59;100.00;97079.25;5054690;28;20218;-61
2023/10/03 05:50:34;;;;;;;18.00;13.77;;;;;;;10.53;100.00;97080.78;5045785;28;20280;-61
2023/10/03 05:53:06;;;;;;;18.93;13.30;;;;;;;10.59;100.00;97084.53;5057795;28;20190;-62
2023/10/03 05:55:34;;;;;;;18.83;13.70;;;;;;;10.54;100.00;97063.09;4974971;28;21210;-59
2023/10/03 05:58:03;;;;;;;18.23;15.13;;;;;;;10.56;100.00;97079.63;5073537;28;20222;-61
2023/10/03 06:00:31;;;;;;;16.20;12.93;;;;;;;10.70;100.00;97073.44;5069536;28;20228;-60
2023/10/03 06:03:00;;;;;;;18.07;13.73;;;;;;;10.92;100.00;97081.44;5070888;28;20203;-59
2023/10/03 06:05:29;;;;;;;17.60;14.40;;;;;;;11.09;100.00;97081.16;5069670;28;20221;-61
2023/10/03 06:07:59;;;;;;;18.83;13.87;;;;;;;11.25;100.00;97080.91;5071782;28;20214;-60
2023/10/03 06:10:29;;;;;;;18.70;14.67;;;;;;;11.37;100.00;97080.41;5072554;28;20355;-60
2023/10/03 06:12:57;;;;;;;19.57;13.83;;;;;;;11.55;100.00;97072.81;5070463;28;20198;-59
2023/10/03 06:15:25;;;;;;;16.93;13.63;;;;;;;11.61;100.00;97068.53;4968351;28;21271;-59
2023/10/03 06:17:53;;;;;;;16.23;12.27;;;;;;;11.77;100.00;97071.91;5074223;28;20293;-57
2023/10/03 06:20:24;;;;;;;17.67;13.57;;;;;;;11.83;100.00;97063.97;5018228;28;20225;-59
2023/10/03 06:26:36;;;;;;;17.17;13.67;;;;;;;11.98;100.00;97057.75;5708805;22;20234;-62
2023/10/03 06:29:04;;;;;;;16.87;12.23;;;;;;;12.09;100.00;97054.56;5017534;28;20222;-57
2023/10/03 06:31:32;;;;;;;17.63;12.70;;;;;;;12.11;100.00;97059.66;5055176;28;20290;-57
2023/10/03 06:34:01;;;;;;;14.67;12.73;;;;;;;12.19;100.00;97066.66;5056438;28;20210;-60
2023/10/03 06:36:29;;;;;;;16.27;13.37;;;;;;;12.33;100.00;97060.41;5067361;28;20218;-61
2023/10/03 06:38:58;;;;;;;17.93;13.80;;;;;;;12.43;100.00;97071.47;5062210;28;20299;-59
2023/10/03 06:41:26;;;;;;;19.93;14.50;;;;;;;12.54;100.00;97071.91;5061692;28;20623;-57
2023/10/03 06:43:54;;;;;;;18.47;14.33;;;;;;;12.54;100.00;97066.59;5075246;28;20198;-60
2023/10/03 06:46:23;;;;;;;17.33;13.10;;;;;;;12.49;100.00;97064.53;5077126;28;20227;-59
2023/10/03 06:48:52;;;;;;;15.57;13.33;;;;;;;12.64;100.00;97059.06;4960562;28;20328;-59
2023/10/03 06:51:20;;;;;;;15.20;13.30;;;;;;;12.88;100.00;97068.34;5064957;28;20285;-60
2023/10/03 06:53:49;;;;;;;18.83;12.73;;;;;;;13.04;100.00;97068.97;5001356;28;20724;-60
2023/10/03 06:56:18;;;;;;;16.67;12.67;;;;;;;13.22;100.00;97065.72;5074168;28;20217;-59
2023/10/03 06:58:47;;;;;;;17.83;13.83;;;;;;;13.49;100.00;97060.44;5017149;28;20216;-58
2023/10/03 07:01:14;;;;;;;22.20;15.00;;;;;;;13.73;100.00;97053.66;5077989;28;20230;-59
2023/10/03 07:03:42;;;;;;;16.57;13.27;;;;;;;13.97;100.00;97051.31;5072390;28;20209;-61
2023/10/03 07:06:10;;;;;;;16.90;13.17;;;;;;;14.28;100.00;97044.47;5074490;28;20234;-59
2023/10/03 07:08:41;;;;;;;15.13;13.13;;;;;;;14.53;100.00;97042.94;5019719;28;20666;-60
2023/10/03 07:11:16;;;;;;;18.57;14.70;;;;;;;14.86;100.00;97033.94;5074945;28;20211;-58
2023/10/03 07:13:43;;;;;;;17.50;13.70;;;;;;;15.17;100.00;97026.97;5011869;28;20204;-59
2023/10/03 07:16:11;;;;;;;20.47;13.73;;;;;;;15.39;100.00;97045.28;5071349;28;20215;-60
2023/10/03 07:18:39;;;;;;;17.90;12.60;;;;;;;15.37;100.00;97040.16;5071183;28;20780;-61
2023/10/03 07:21:07;;;;;;;18.67;12.60;;;;;;;15.72;100.00;97031.63;5078961;28;20295;-60
2023/10/03 07:23:35;;;;;;;17.47;12.97;;;;;;;15.94;100.00;97038.41;4961780;28;20620;-59
2023/10/03 07:26:07;;;;;;;17.30;12.30;;;;;;;16.16;100.00;97041.47;5073894;28;20226;-60
2023/10/03 07:28:38;;;;;;;17.27;13.17;;;;;;;16.41;100.00;97035.22;5022345;28;20245;-59
2023/10/03 07:31:08;;;;;;;16.93;11.87;;;;;;;16.49;100.00;97042.91;5061759;28;20321;-59
2023/10/03 07:33:36;;;;;;;16.97;11.97;;;;;;;16.15;100.00;97043.34;5062084;28;20206;-61
2023/10/03 07:36:05;;;;;;;15.23;12.13;;;;;;;15.89;100.00;97045.25;5065211;28;20241;-60
2023/10/03 07:38:32;;;;;;;17.47;13.37;;;;;;;15.68;100.00;97043.78;5018240;28;20214;-59
2023/10/03 07:41:01;;;;;;;18.47;12.83;;;;;;;15.74;100.00;97047.44;5072785;28;20208;-61
2023/10/03 07:43:29;;;;;;;16.37;12.10;;;;;;;15.66;100.00;97045.03;5070627;28;20206;-57
2023/10/03 07:45:58;;;;;;;18.93;12.63;;;;;;;15.72;100.00;97044.16;5069606;28;20325;-61
2023/10/03 07:48:26;;;;;;;18.10;12.77;;;;;;;15.79;100.00;97034.25;5074151;28;20286;-61
2023/10/03 07:50:54;;;;;;;18.03;13.10;;;;;;;15.93;100.00;97034.13;5075067;28;20239;-61
2023/10/03 07:53:22;;;;;;;21.03;12.87;;;;;;;16.26;100.00;97027.59;5076907;28;20198;-61
2023/10/03 07:55:50;;;;;;;18.47;13.00;;;;;;;16.42;100.00;97029.63;4953276;28;20252;-61
2023/10/03 07:58:20;;;;;;;17.57;13.07;;;;;;;16.62;100.00;97028.56;5071834;28;20221;-60
2023/10/03 08:00:49;;;;;;;18.43;14.20;;;;;;;16.70;100.00;97036.25;5023315;28;20324;-62
2023/10/03 08:03:19;;;;;;;18.67;13.90;;;;;;;16.55;100.00;97038.53;5076614;28;20710;-62
2023/10/03 08:05:47;;;;;;;18.50;12.90;;;;;;;16.81;100.00;97045.38;5071580;28;20253;-62
2023/10/03 08:08:15;;;;;;;21.67;14.50;;;;;;;16.96;100.00;97039.63;5076712;28;20576;-62
2023/10/03 08:10:48;;;;;;;17.10;12.70;;;;;;;16.90;100.00;97044.00;5018327;28;20202;-63
2023/10/03 08:13:17;;;;;;;22.47;12.80;;;;;;;16.97;100.00;97046.59;5072600;28;20230;-61
2023/10/03 08:15:45;;;;;;;19.60;13.10;;;;;;;16.67;100.00;97042.06;5071392;28;20226;-62
2023/10/03 08:18:17;;;;;;;17.63;13.00;;;;;;;16.35;100.00;97042.28;5010783;28;20206;-61
2023/10/03 08:20:53;;;;;;;20.70;12.30;;;;;;;16.27;100.00;97050.59;5077780;28;20229;-61
2023/10/03 08:23:22;;;;;;;21.17;13.10;;;;;;;16.14;100.00;97054.25;5070900;28;20200;-61
2023/10/03 08:25:49;;;;;;;17.33;11.90;;;;;;;16.19;100.00;97057.06;5073214;28;20284;-58
2023/10/03 08:28:20;;;;;;;18.60;12.30;;;;;;;16.41;100.00;97061.94;4982354;28;20217;-61
2023/10/03 08:30:50;;;;;;;19.53;12.60;;;;;;;16.56;100.00;97058.91;5071651;28;21205;-61
2023/10/03 08:33:19;;;;;;;18.23;12.10;;;;;;;16.76;100.00;97059.44;5020345;28;20289;-61
2023/10/03 08:35:48;;;;;;;18.23;12.93;;;;;;;16.93;100.00;97054.25;5072582;28;21185;-59
2023/10/03 08:38:19;;;;;;;16.03;11.23;;;;;;;16.90;100.00;97059.25;5011296;28;20206;-60
2023/10/03 08:40:49;;;;;;;17.17;12.27;;;;;;;17.09;100.00;97060.03;5073052;28;20612;-60
2023/10/03 08:43:25;;;;;;;17.20;12.27;;;;;;;17.06;100.00;97057.84;5019698;28;20215;-60
2023/10/03 08:45:57;;;;;;;19.77;12.90;;;;;;;17.27;100.00;97055.66;5073866;28;20722;-59
2023/10/03 08:48:25;;;;;;;18.83;12.83;;;;;;;17.27;100.00;97052.97;5007321;28;20198;-60
2023/10/03 08:50:58;;;;;;;14.83;12.13;;;;;;;17.42;100.00;97055.22;5073417;28;20775;-59
2023/10/03 08:53:31;;;;;;;14.50;11.57;;;;;;;17.53;100.00;97067.00;5006408;28;20888;-58
2023/10/03 08:55:59;;;;;;;18.23;11.20;;;;;;;17.31;100.00;97059.50;5071454;28;20775;-61
2023/10/03 08:58:27;;;;;;;17.00;12.43;;;;;;;17.42;100.00;97056.00;5065024;28;20199;-59
2023/10/03 09:00:59;;;;;;;19.67;13.40;;;;;;;17.50;100.00;97054.88;5076196;28;20368;-59
2023/10/03 09:03:42;;;;;;;18.13;13.20;;;;;;;17.72;100.00;97051.63;4954578;28;20221;-60
2023/10/03 09:06:19;;;;;;;17.77;12.43;;;;;;;17.64;100.00;97055.47;5073644;28;20308;-59
2023/10/03 09:08:49;;;;;;;18.37;12.17;;;;;;;17.76;100.00;97066.97;5024227;28;20210;-61
2023/10/03 09:11:18;;;;;;;17.77;12.00;;;;;;;17.82;100.00;97065.25;5072910;28;20225;-61
2023/10/03 09:13:48;;;;;;;18.03;12.20;;;;;;;17.90;100.00;97067.56;5019877;28;20273;-60
2023/10/03 09:16:16;;;;;;;16.13;11.93;;;;;;;18.19;100.00;97058.84;5072789;28;20709;-58
2023/10/03 09:18:55;;;;;;;18.63;12.50;;;;;;;18.22;100.00;97061.03;4943060;28;20211;-58
2023/10/03 09:21:27;;;;;;;15.20;11.23;;;;;;;18.21;100.00;97043.31;5075580;28;20557;-61
2023/10/03 09:24:09;;;;;;;14.53;11.67;;;;;;;18.39;100.00;97050.41;5065850;28;20206;-55
2023/10/03 09:26:46;;;;;;;15.87;11.87;;;;;;;18.40;100.00;97054.72;5071072;28;20222;-59
2023/10/03 09:29:18;;;;;;;17.80;11.87;;;;;;;18.63;100.00;97052.97;5068164;28;20300;-58
2023/10/03 09:31:49;;;;;;;15.10;11.43;;;;;;;18.72;100.00;97051.53;5059138;28;20589;-59
2023/10/03 09:34:17;;;;;;;17.93;12.83;;;;;;;18.75;100.00;97053.78;5023769;28;20234;-59
2023/10/03 09:36:50;;;;;;;16.13;12.37;;;;;;;18.79;100.00;97048.72;5054814;28;20248;-58
2023/10/03 09:39:22;;;;;;;16.63;12.30;;;;;;;18.89;100.00;97048.91;4989361;28;20215;-59
2023/10/03 09:41:54;;;;;;;16.07;12.33;;;;;;;18.75;100.00;97043.03;5068604;28;20199;-58
2023/10/03 09:44:29;;;;;;;15.00;12.10;;;;;;;18.87;100.00;97042.16;5025727;28;20207;-60
2023/10/03 09:47:04;;;;;;;13.93;11.77;;;;;;;19.08;100.00;97040.69;5049764;28;20329;-56
2023/10/03 09:49:36;;;;;;;16.33;12.43;;;;;;;19.14;100.00;97045.06;5047012;28;20293;-60
2023/10/03 09:52:17;;;;;;;17.53;13.30;;;;;;;19.36;100.00;97041.69;5070375;28;20737;-60
2023/10/03 09:54:45;;;;;;;18.30;12.30;;;;;;;19.57;100.00;97034.75;5073601;28;20734;-57
2023/10/03 09:57:17;;;;;;;16.83;11.47;;;;;;;19.47;100.00;97024.66;5029472;28;20836;-58
2023/10/03 09:59:49;;;;;;;16.60;11.90;;;;;;;19.67;100.00;97034.06;5069933;28;20242;-59
2023/10/03 10:02:19;;;;;;;17.13;12.40;;;;;;;19.49;100.00;97021.72;5024824;28;20851;-59
2023/10/03 10:04:51;;;;;;;16.17;12.17;;;;;;;19.63;100.00;97019.50;5072396;28;20721;-59
2023/10/03 10:07:33;;;;;;;16.00;11.57;;;;;;;19.81;100.00;97016.53;4969367;28;20338;-57
2023/10/03 10:10:07;;;;;;;15.90;12.77;;;;;;;19.83;100.00;97015.47;5074301;28;20859;-59
2023/10/03 10:12:37;;;;;;;15.67;11.90;;;;;;;20.02;100.00;97002.59;5015123;28;21090;-60
2023/10/03 10:15:17;;;;;;;16.00;11.37;;;;;;;20.21;100.00;97017.34;5076361;28;20206;-59
2023/10/03 10:17:49;;;;;;;14.07;11.10;;;;;;;20.32;100.00;97010.22;5019148;28;20307;-59
2023/10/03 10:20:21;;;;;;;16.53;12.00;;;;;;;20.43;100.00;97010.31;5077211;28;20201;-56
2023/10/03 10:23:21;;;;;;;16.83;11.90;;;;;;;20.60;100.00;97007.53;5022484;28;20233;-58
2023/10/03 10:25:56;;;;;;;16.80;11.53;;;;;;;20.71;100.00;97009.31;5074075;28;20232;-58
2023/10/03 10:28:27;;;;;;;13.80;10.93;;;;;;;20.72;100.00;97005.53;5012265;28;20255;-61
2023/10/03 10:31:21;;;;;;;17.77;11.40;;;;;;;20.84;100.00;97007.28;5077195;28;20293;-59
2023/10/03 10:33:50;;;;;;;14.73;13.23;;;;;;;20.98;100.00;96999.59;5068143;28;20241;-60
2023/10/03 10:36:20;;;;;;;16.47;12.33;;;;;;;21.02;100.00;96993.44;5077776;28;20234;-56
2023/10/03 10:38:55;;;;;;;13.73;11.07;;;;;;;21.05;100.00;96994.81;5074456;28;20214;-60
2023/10/03 10:41:27;;;;;;;17.07;12.03;;;;;;;21.15;100.00;96975.25;5075769;28;20391;-60
2023/10/03 10:44:14;;;;;;;14.87;11.27;;;;;;;21.34;100.00;96981.84;4952581;28;20225;-59
2023/10/03 10:46:44;;;;;;;15.73;11.10;;;;;;;21.46;100.00;96991.63;5069361;28;20257;-59
2023/10/03 10:49:52;;;;;;;13.73;11.67;;;;;;;21.61;100.00;96986.34;5071316;28;20283;-60
2023/10/03 10:52:51;;;;;;;15.00;11.83;;;;;;;21.71;100.00;96974.00;5005079;28;20692;-59
2023/10/03 10:55:22;;;;;;;17.53;11.57;;;;;;;21.67;100.00;96979.13;5072845;28;20205;-56
2023/10/03 10:58:07;;;;;;;14.77;10.70;;;;;;;21.77;100.00;96967.56;5070361;28;20187;-59
2023/10/03 11:00:35;;;;;;;14.27;11.33;;;;;;;21.85;100.00;96956.31;5071490;28;20687;-58
2023/10/03 11:03:03;;;;;;;14.90;12.30;;;;;;;21.91;100.00;96959.81;5074076;28;20202;-58
2023/10/03 11:05:42;;;;;;;14.53;11.30;;;;;;;21.79;100.00;96957.34;5073048;28;20618;-57
2023/10/03 11:08:10;;;;;;;16.40;11.43;;;;;;;21.97;100.00;96956.06;5070169;28;20271;-56
2023/10/03 11:10:51;;;;;;;12.27;10.70;;;;;;;22.09;100.00;96953.16;5073847;28;20290;-58
2023/10/03 11:13:19;;;;;;;16.93;11.13;;;;;;;22.04;100.00;96953.13;4948813;28;20761;-56
2023/10/03 11:15:50;;;;;;;15.50;12.07;;;;;;;22.10;100.00;96947.50;5074573;28;20253;-56
2023/10/03 11:18:18;;;;;;;15.43;12.43;;;;;;;22.20;100.00;96938.63;5072479;28;20210;-58
2023/10/03 11:20:47;;;;;;;13.13;11.33;;;;;;;22.28;100.00;96937.28;5072017;28;20190;-57
2023/10/03 11:23:18;;;;;;;15.53;12.43;;;;;;;22.36;100.00;96946.75;5070071;28;20321;-58
2023/10/03 11:25:57;;;;;;;16.20;11.77;;;;;;;22.43;100.00;96928.41;5073344;28;20222;-58
2023/10/03 11:28:27;;;;;;;15.70;12.70;;;;;;;22.60;100.00;96922.81;5015437;28;20214;-57